Bowen, Illinois
Current Conditions -  °F | °C
As of 7:54 PM on Monday 20 Oct 2014 (Local Time) from KUIN Reporting Station
Clear Clear  
Wind Chill: 59°   Ceiling: Unl
Heat Index: 59°   Visibility: 10mi
Dew Point: 43°   Wind: 5mph
Humidity: 55%   Direction: 280°W
Pressure: 30"   Gusts: NA
Location:  40.23°N, 91.06°W
Report Text: KUIN 210054Z AUTO 28004KT 10SM CLR 15/06 A3000 RMK AO2 SLP160 T01500061
Loading
Personal Weather Stations






























Interactive Weather Map
Tropical Storm Tracking
New forecast layout! Learn more

10-Day Weather Forecast

Advertisements
Track Severe Weather on mobile